sensor_id;sensor_type;location;lat;lon;timestamp;temperature;humidity
51801;DHT22;37855;53.204;6.568;2023-02-15T00:01:09;4.60;78.70
51801;DHT22;37855;53.204;6.568;2023-02-15T00:03:36;4.60;78.70
51801;DHT22;37855;53.204;6.568;2023-02-15T00:06:02;4.60;78.70
51801;DHT22;37855;53.204;6.568;2023-02-15T00:08:28;4.60;78.70
51801;DHT22;37855;53.204;6.568;2023-02-15T00:13:30;4.50;78.80
51801;DHT22;37855;53.204;6.568;2023-02-15T00:16:01;4.50;78.80
51801;DHT22;37855;53.204;6.568;2023-02-15T00:18:30;4.50;78.80
51801;DHT22;37855;53.204;6.568;2023-02-15T00:20:56;4.50;78.80
51801;DHT22;37855;53.204;6.568;2023-02-15T00:23:22;4.40;78.80
51801;DHT22;37855;53.204;6.568;2023-02-15T00:25:48;4.40;78.80
51801;DHT22;37855;53.204;6.568;2023-02-15T00:28:16;4.40;78.80
51801;DHT22;37855;53.204;6.568;2023-02-15T00:30:42;4.40;78.80
51801;DHT22;37855;53.204;6.568;2023-02-15T00:33:08;4.40;78.90
51801;DHT22;37855;53.204;6.568;2023-02-15T00:35:33;4.40;78.80
51801;DHT22;37855;53.204;6.568;2023-02-15T00:37:59;4.40;78.90
51801;DHT22;37855;53.204;6.568;2023-02-15T00:40:24;4.30;78.90
51801;DHT22;37855;53.204;6.568;2023-02-15T00:42:50;4.40;79.00
51801;DHT22;37855;53.204;6.568;2023-02-15T00:45:16;4.30;78.90
51801;DHT22;37855;53.204;6.568;2023-02-15T00:47:41;4.30;78.80
51801;DHT22;37855;53.204;6.568;2023-02-15T00:50:07;4.40;78.70
51801;DHT22;37855;53.204;6.568;2023-02-15T00:52:33;4.30;78.70
51801;DHT22;37855;53.204;6.568;2023-02-15T00:54:59;4.30;78.70
51801;DHT22;37855;53.204;6.568;2023-02-15T00:57:25;4.30;78.70
51801;DHT22;37855;53.204;6.568;2023-02-15T00:59:50;4.30;78.70
51801;DHT22;37855;53.204;6.568;2023-02-15T01:02:16;4.30;78.60
51801;DHT22;37855;53.204;6.568;2023-02-15T01:04:42;4.30;78.60
51801;DHT22;37855;53.204;6.568;2023-02-15T01:07:08;4.30;78.60
51801;DHT22;37855;53.204;6.568;2023-02-15T01:09:33;4.30;78.50
51801;DHT22;37855;53.204;6.568;2023-02-15T01:11:59;4.20;78.40
51801;DHT22;37855;53.204;6.568;2023-02-15T01:14:27;4.20;78.40
51801;DHT22;37855;53.204;6.568;2023-02-15T01:17:21;4.20;78.30
51801;DHT22;37855;53.204;6.568;2023-02-15T01:19:47;4.20;78.30
51801;DHT22;37855;53.204;6.568;2023-02-15T01:22:13;4.20;78.30
51801;DHT22;37855;53.204;6.568;2023-02-15T01:24:39;4.20;78.20
51801;DHT22;37855;53.204;6.568;2023-02-15T01:27:07;4.20;78.20
51801;DHT22;37855;53.204;6.568;2023-02-15T01:29:33;4.10;78.20
51801;DHT22;37855;53.204;6.568;2023-02-15T01:31:58;4.10;78.20
51801;DHT22;37855;53.204;6.568;2023-02-15T01:34:24;4.10;78.20
51801;DHT22;37855;53.204;6.568;2023-02-15T01:36:50;4.10;78.30
51801;DHT22;37855;53.204;6.568;2023-02-15T01:39:15;4.10;78.20
51801;DHT22;37855;53.204;6.568;2023-02-15T01:41:41;4.00;78.40
51801;DHT22;37855;53.204;6.568;2023-02-15T01:47:11;3.90;78.60
51801;DHT22;37855;53.204;6.568;2023-02-15T01:49:38;3.90;78.80
51801;DHT22;37855;53.204;6.568;2023-02-15T01:52:07;3.90;78.90
51801;DHT22;37855;53.204;6.568;2023-02-15T01:54:34;3.90;78.90
51801;DHT22;37855;53.204;6.568;2023-02-15T01:57:10;3.80;78.90
51801;DHT22;37855;53.204;6.568;2023-02-15T01:59:39;3.80;78.90
51801;DHT22;37855;53.204;6.568;2023-02-15T02:02:12;3.80;79.00
51801;DHT22;37855;53.204;6.568;2023-02-15T02:04:47;3.80;79.00
51801;DHT22;37855;53.204;6.568;2023-02-15T02:07:15;3.80;78.90
51801;DHT22;37855;53.204;6.568;2023-02-15T02:09:43;3.70;78.80
51801;DHT22;37855;53.204;6.568;2023-02-15T02:12:13;3.70;78.80
51801;DHT22;37855;53.204;6.568;2023-02-15T02:14:40;3.70;78.70
51801;DHT22;37855;53.204;6.568;2023-02-15T02:34:33;3.50;78.70
51801;DHT22;37855;53.204;6.568;2023-02-15T02:37:30;3.50;78.70
51801;DHT22;37855;53.204;6.568;2023-02-15T02:43:19;3.30;78.60
51801;DHT22;37855;53.204;6.568;2023-02-15T02:46:10;3.30;78.60
51801;DHT22;37855;53.204;6.568;2023-02-15T02:48:20;3.30;78.60
51801;DHT22;37855;53.204;6.568;2023-02-15T02:50:50;3.30;78.60
51801;DHT22;37855;53.204;6.568;2023-02-15T02:53:16;3.20;78.60
51801;DHT22;37855;53.204;6.568;2023-02-15T02:55:49;3.20;78.60
51801;DHT22;37855;53.204;6.568;2023-02-15T02:58:41;3.20;78.60
51801;DHT22;37855;53.204;6.568;2023-02-15T03:01:15;3.20;78.70
51801;DHT22;37855;53.204;6.568;2023-02-15T03:03:49;3.20;78.70
51801;DHT22;37855;53.204;6.568;2023-02-15T03:06:39;3.10;78.70
51801;DHT22;37855;53.204;6.568;2023-02-15T03:12:03;3.10;78.70
51801;DHT22;37855;53.204;6.568;2023-02-15T03:14:29;3.10;78.70
51801;DHT22;37855;53.204;6.568;2023-02-15T03:16:55;3.10;78.60
51801;DHT22;37855;53.204;6.568;2023-02-15T03:19:25;3.10;78.50
51801;DHT22;37855;53.204;6.568;2023-02-15T03:21:58;3.10;78.50
51801;DHT22;37855;53.204;6.568;2023-02-15T03:27:03;3.10;78.50
51801;DHT22;37855;53.204;6.568;2023-02-15T03:29:32;3.10;78.50
51801;DHT22;37855;53.204;6.568;2023-02-15T03:32:01;3.10;78.40
51801;DHT22;37855;53.204;6.568;2023-02-15T03:34:28;3.10;78.50
51801;DHT22;37855;53.204;6.568;2023-02-15T03:39:59;3.10;78.50
51801;DHT22;37855;53.204;6.568;2023-02-15T03:42:45;3.10;78.40
51801;DHT22;37855;53.204;6.568;2023-02-15T03:45:19;3.00;78.50
51801;DHT22;37855;53.204;6.568;2023-02-15T03:47:47;3.00;78.50
51801;DHT22;37855;53.204;6.568;2023-02-15T03:50:20;3.00;78.50
51801;DHT22;37855;53.204;6.568;2023-02-15T03:53:07;3.00;78.50
51801;DHT22;37855;53.204;6.568;2023-02-15T03:55:35;3.00;78.50
51801;DHT22;37855;53.204;6.568;2023-02-15T03:58:01;3.00;78.50
51801;DHT22;37855;53.204;6.568;2023-02-15T04:00:57;3.00;78.60
51801;DHT22;37855;53.204;6.568;2023-02-15T04:03:51;3.00;78.60
51801;DHT22;37855;53.204;6.568;2023-02-15T04:06:19;3.00;78.60
51801;DHT22;37855;53.204;6.568;2023-02-15T04:08:45;3.00;78.60
51801;DHT22;37855;53.204;6.568;2023-02-15T04:11:30;2.90;78.70
51801;DHT22;37855;53.204;6.568;2023-02-15T04:13:55;2.90;78.80
51801;DHT22;37855;53.204;6.568;2023-02-15T04:16:25;2.90;78.80
51801;DHT22;37855;53.204;6.568;2023-02-15T04:18:51;2.90;78.80
51801;DHT22;37855;53.204;6.568;2023-02-15T04:21:35;2.90;78.90
51801;DHT22;37855;53.204;6.568;2023-02-15T04:24:19;2.90;79.10
51801;DHT22;37855;53.204;6.568;2023-02-15T04:27:05;2.90;79.10
51801;DHT22;37855;53.204;6.568;2023-02-15T04:29:31;2.90;79.20
51801;DHT22;37855;53.204;6.568;2023-02-15T04:31:59;2.90;79.30
51801;DHT22;37855;53.204;6.568;2023-02-15T04:34:25;2.90;79.30
51801;DHT22;37855;53.204;6.568;2023-02-15T04:36:51;3.00;79.20
51801;DHT22;37855;53.204;6.568;2023-02-15T04:39:18;2.90;79.20
51801;DHT22;37855;53.204;6.568;2023-02-15T04:41:44;2.90;79.20
51801;DHT22;37855;53.204;6.568;2023-02-15T04:44:11;2.90;79.20
51801;DHT22;37855;53.204;6.568;2023-02-15T04:46:37;2.90;79.20
51801;DHT22;37855;53.204;6.568;2023-02-15T04:49:02;2.90;79.30
51801;DHT22;37855;53.204;6.568;2023-02-15T04:51:28;2.90;79.30
51801;DHT22;37855;53.204;6.568;2023-02-15T04:53:54;2.90;79.20
51801;DHT22;37855;53.204;6.568;2023-02-15T04:56:20;2.90;79.20
51801;DHT22;37855;53.204;6.568;2023-02-15T04:58:46;2.90;79.10
51801;DHT22;37855;53.204;6.568;2023-02-15T05:01:12;2.80;79.20
51801;DHT22;37855;53.204;6.568;2023-02-15T05:03:38;2.80;79.20
51801;DHT22;37855;53.204;6.568;2023-02-15T05:06:05;2.80;79.10
51801;DHT22;37855;53.204;6.568;2023-02-15T05:08:31;2.80;79.10
51801;DHT22;37855;53.204;6.568;2023-02-15T05:10:57;2.80;79.10
51801;DHT22;37855;53.204;6.568;2023-02-15T05:13:23;2.80;79.10
51801;DHT22;37855;53.204;6.568;2023-02-15T05:15:52;2.80;79.10
51801;DHT22;37855;53.204;6.568;2023-02-15T05:18:20;2.80;79.20
51801;DHT22;37855;53.204;6.568;2023-02-15T05:20:46;2.80;79.10
51801;DHT22;37855;53.204;6.568;2023-02-15T05:23:12;2.70;79.20
51801;DHT22;37855;53.204;6.568;2023-02-15T05:25:50;2.70;79.30
51801;DHT22;37855;53.204;6.568;2023-02-15T05:28:36;2.70;79.30
51801;DHT22;37855;53.204;6.568;2023-02-15T05:33:35;2.70;79.20
51801;DHT22;37855;53.204;6.568;2023-02-15T05:36:01;2.70;79.20
51801;DHT22;37855;53.204;6.568;2023-02-15T05:38:27;2.70;79.20
51801;DHT22;37855;53.204;6.568;2023-02-15T05:40:53;2.70;79.20
51801;DHT22;37855;53.204;6.568;2023-02-15T05:43:19;2.70;79.20
51801;DHT22;37855;53.204;6.568;2023-02-15T05:46:07;2.70;79.20
51801;DHT22;37855;53.204;6.568;2023-02-15T05:48:32;2.70;79.10
51801;DHT22;37855;53.204;6.568;2023-02-15T05:51:06;2.70;79.20
51801;DHT22;37855;53.204;6.568;2023-02-15T05:53:39;2.70;79.20
51801;DHT22;37855;53.204;6.568;2023-02-15T05:56:06;2.70;79.20
51801;DHT22;37855;53.204;6.568;2023-02-15T05:58:35;2.70;79.10
51801;DHT22;37855;53.204;6.568;2023-02-15T06:01:27;2.70;79.20
51801;DHT22;37855;53.204;6.568;2023-02-15T06:03:53;2.70;79.20
51801;DHT22;37855;53.204;6.568;2023-02-15T06:06:19;2.70;79.30
51801;DHT22;37855;53.204;6.568;2023-02-15T06:08:45;2.70;79.20
51801;DHT22;37855;53.204;6.568;2023-02-15T06:11:11;2.70;79.30
51801;DHT22;37855;53.204;6.568;2023-02-15T06:13:37;2.70;79.30
51801;DHT22;37855;53.204;6.568;2023-02-15T06:16:03;2.70;79.30
51801;DHT22;37855;53.204;6.568;2023-02-15T06:18:28;2.70;79.30
51801;DHT22;37855;53.204;6.568;2023-02-15T06:20:54;2.70;79.40
51801;DHT22;37855;53.204;6.568;2023-02-15T06:23:19;2.70;79.40
51801;DHT22;37855;53.204;6.568;2023-02-15T06:25:46;2.70;79.40
51801;DHT22;37855;53.204;6.568;2023-02-15T06:28:18;2.70;79.40
51801;DHT22;37855;53.204;6.568;2023-02-15T06:30:46;2.70;79.40
51801;DHT22;37855;53.204;6.568;2023-02-15T06:33:12;2.60;79.40
51801;DHT22;37855;53.204;6.568;2023-02-15T06:35:38;2.70;79.40
51801;DHT22;37855;53.204;6.568;2023-02-15T06:38:03;2.70;79.50
51801;DHT22;37855;53.204;6.568;2023-02-15T06:40:29;2.70;79.60
51801;DHT22;37855;53.204;6.568;2023-02-15T06:42:54;2.70;79.50
51801;DHT22;37855;53.204;6.568;2023-02-15T06:45:20;2.70;79.50
51801;DHT22;37855;53.204;6.568;2023-02-15T06:47:46;2.70;79.60
51801;DHT22;37855;53.204;6.568;2023-02-15T06:50:12;2.70;79.60
51801;DHT22;37855;53.204;6.568;2023-02-15T06:52:39;2.70;79.60
51801;DHT22;37855;53.204;6.568;2023-02-15T06:55:05;2.70;79.60
51801;DHT22;37855;53.204;6.568;2023-02-15T06:57:31;2.70;79.60
51801;DHT22;37855;53.204;6.568;2023-02-15T06:59:59;2.70;79.60
51801;DHT22;37855;53.204;6.568;2023-02-15T07:02:25;2.70;79.60
51801;DHT22;37855;53.204;6.568;2023-02-15T07:04:50;2.70;79.60
51801;DHT22;37855;53.204;6.568;2023-02-15T07:07:16;2.70;79.60
51801;DHT22;37855;53.204;6.568;2023-02-15T07:09:42;2.70;79.60
51801;DHT22;37855;53.204;6.568;2023-02-15T07:12:08;2.70;79.60
51801;DHT22;37855;53.204;6.568;2023-02-15T07:14:52;2.70;79.60
51801;DHT22;37855;53.204;6.568;2023-02-15T07:17:18;2.80;79.60
51801;DHT22;37855;53.204;6.568;2023-02-15T07:19:44;2.80;79.60
51801;DHT22;37855;53.204;6.568;2023-02-15T07:22:09;2.80;79.50
51801;DHT22;37855;53.204;6.568;2023-02-15T07:24:35;2.80;79.60
51801;DHT22;37855;53.204;6.568;2023-02-15T07:27:02;2.80;79.60
51801;DHT22;37855;53.204;6.568;2023-02-15T07:29:28;2.90;79.50
51801;DHT22;37855;53.204;6.568;2023-02-15T07:31:53;2.90;79.50
51801;DHT22;37855;53.204;6.568;2023-02-15T07:34:20;2.90;79.40
51801;DHT22;37855;53.204;6.568;2023-02-15T07:36:45;3.00;79.30
51801;DHT22;37855;53.204;6.568;2023-02-15T07:39:13;3.00;79.30
51801;DHT22;37855;53.204;6.568;2023-02-15T07:41:39;3.00;79.30
51801;DHT22;37855;53.204;6.568;2023-02-15T07:44:04;3.10;79.20
51801;DHT22;37855;53.204;6.568;2023-02-15T07:46:30;3.10;79.20
51801;DHT22;37855;53.204;6.568;2023-02-15T07:48:56;3.20;79.20
51801;DHT22;37855;53.204;6.568;2023-02-15T07:51:21;3.20;79.20
51801;DHT22;37855;53.204;6.568;2023-02-15T07:53:47;3.20;79.20
51801;DHT22;37855;53.204;6.568;2023-02-15T07:56:14;3.30;79.20
51801;DHT22;37855;53.204;6.568;2023-02-15T07:58:40;3.30;79.10
51801;DHT22;37855;53.204;6.568;2023-02-15T08:01:26;3.40;79.10
51801;DHT22;37855;53.204;6.568;2023-02-15T08:03:53;3.40;79.00
51801;DHT22;37855;53.204;6.568;2023-02-15T08:06:20;3.50;79.00
51801;DHT22;37855;53.204;6.568;2023-02-15T08:08:46;3.50;79.00
51801;DHT22;37855;53.204;6.568;2023-02-15T08:14:21;3.60;78.90
51801;DHT22;37855;53.204;6.568;2023-02-15T08:16:52;3.60;78.80
51801;DHT22;37855;53.204;6.568;2023-02-15T08:19:23;3.60;78.70
51801;DHT22;37855;53.204;6.568;2023-02-15T08:22:06;3.70;78.70
51801;DHT22;37855;53.204;6.568;2023-02-15T08:24:34;3.70;78.70
51801;DHT22;37855;53.204;6.568;2023-02-15T08:27:02;3.80;78.70
51801;DHT22;37855;53.204;6.568;2023-02-15T08:29:31;3.80;78.60
51801;DHT22;37855;53.204;6.568;2023-02-15T08:32:11;3.90;78.60
51801;DHT22;37855;53.204;6.568;2023-02-15T08:34:41;3.90;78.60
51801;DHT22;37855;53.204;6.568;2023-02-15T08:37:07;4.00;78.50
51801;DHT22;37855;53.204;6.568;2023-02-15T08:39:33;4.10;78.50
51801;DHT22;37855;53.204;6.568;2023-02-15T08:41:59;4.10;78.30
51801;DHT22;37855;53.204;6.568;2023-02-15T08:44:24;4.20;78.30
51801;DHT22;37855;53.204;6.568;2023-02-15T08:46:50;4.20;78.30
51801;DHT22;37855;53.204;6.568;2023-02-15T08:49:18;4.20;78.20
51801;DHT22;37855;53.204;6.568;2023-02-15T08:51:44;4.20;78.20
51801;DHT22;37855;53.204;6.568;2023-02-15T08:54:13;4.30;78.20
51801;DHT22;37855;53.204;6.568;2023-02-15T08:56:46;4.40;78.10
51801;DHT22;37855;53.204;6.568;2023-02-15T08:59:18;4.40;78.10
51801;DHT22;37855;53.204;6.568;2023-02-15T09:01:45;4.50;78.00
51801;DHT22;37855;53.204;6.568;2023-02-15T09:04:11;4.50;77.80
51801;DHT22;37855;53.204;6.568;2023-02-15T09:06:39;4.50;77.80
51801;DHT22;37855;53.204;6.568;2023-02-15T09:09:05;4.60;77.70
51801;DHT22;37855;53.204;6.568;2023-02-15T09:11:34;4.60;77.70
51801;DHT22;37855;53.204;6.568;2023-02-15T09:14:04;4.70;77.70
51801;DHT22;37855;53.204;6.568;2023-02-15T09:16:32;4.70;77.60
51801;DHT22;37855;53.204;6.568;2023-02-15T09:19:04;4.70;77.60
51801;DHT22;37855;53.204;6.568;2023-02-15T09:21:35;4.80;77.50
51801;DHT22;37855;53.204;6.568;2023-02-15T09:24:08;4.80;77.50
51801;DHT22;37855;53.204;6.568;2023-02-15T09:26:36;4.80;77.40
51801;DHT22;37855;53.204;6.568;2023-02-15T09:29:03;4.90;77.40
51801;DHT22;37855;53.204;6.568;2023-02-15T09:31:40;4.90;77.30
51801;DHT22;37855;53.204;6.568;2023-02-15T09:34:10;5.00;77.30
51801;DHT22;37855;53.204;6.568;2023-02-15T09:36:38;5.00;77.30
51801;DHT22;37855;53.204;6.568;2023-02-15T09:39:22;5.10;77.20
51801;DHT22;37855;53.204;6.568;2023-02-15T09:42:20;5.20;77.10
51801;DHT22;37855;53.204;6.568;2023-02-15T09:45:06;5.20;77.00
51801;DHT22;37855;53.204;6.568;2023-02-15T10:01:17;5.50;76.70
51801;DHT22;37855;53.204;6.568;2023-02-15T10:07:05;5.70;76.50
51801;DHT22;37855;53.204;6.568;2023-02-15T10:12:57;5.90;76.80
51801;DHT22;37855;53.204;6.568;2023-02-15T10:24:01;6.50;76.60
51801;DHT22;37855;53.204;6.568;2023-02-15T10:31:47;6.80;76.20
51801;DHT22;37855;53.204;6.568;2023-02-15T10:34:28;6.80;76.40
51801;DHT22;37855;53.204;6.568;2023-02-15T10:51:33;7.40;75.70
51801;DHT22;37855;53.204;6.568;2023-02-15T11:00:27;7.60;75.30
51801;DHT22;37855;53.204;6.568;2023-02-15T11:08:14;7.70;74.70
51801;DHT22;37855;53.204;6.568;2023-02-15T11:18:45;7.90;74.60
51801;DHT22;37855;53.204;6.568;2023-02-15T11:21:22;8.00;74.50
51801;DHT22;37855;53.204;6.568;2023-02-15T11:23:51;8.10;74.50
51801;DHT22;37855;53.204;6.568;2023-02-15T11:26:32;8.20;74.30
51801;DHT22;37855;53.204;6.568;2023-02-15T11:29:06;8.30;74.00
51801;DHT22;37855;53.204;6.568;2023-02-15T11:31:46;8.40;74.10
51801;DHT22;37855;53.204;6.568;2023-02-15T11:34:29;8.40;73.80
51801;DHT22;37855;53.204;6.568;2023-02-15T11:37:09;8.50;73.70
51801;DHT22;37855;53.204;6.568;2023-02-15T11:39:35;8.60;73.20
51801;DHT22;37855;53.204;6.568;2023-02-15T11:42:13;8.70;72.70
51801;DHT22;37855;53.204;6.568;2023-02-15T11:48:24;8.80;72.90
51801;DHT22;37855;53.204;6.568;2023-02-15T11:51:08;8.80;72.70
51801;DHT22;37855;53.204;6.568;2023-02-15T11:53:55;8.80;72.70
51801;DHT22;37855;53.204;6.568;2023-02-15T11:56:23;8.90;72.40
51801;DHT22;37855;53.204;6.568;2023-02-15T11:59:09;8.90;71.40
51801;DHT22;37855;53.204;6.568;2023-02-15T12:01:40;9.00;71.90
51801;DHT22;37855;53.204;6.568;2023-02-15T12:06:58;9.20;71.40
51801;DHT22;37855;53.204;6.568;2023-02-15T12:09:30;9.30;71.80
51801;DHT22;37855;53.204;6.568;2023-02-15T12:14:50;9.50;71.30
51801;DHT22;37855;53.204;6.568;2023-02-15T12:17:18;9.50;71.30
51801;DHT22;37855;53.204;6.568;2023-02-15T12:19:46;9.60;71.20
51801;DHT22;37855;53.204;6.568;2023-02-15T12:22:31;9.70;70.80
51801;DHT22;37855;53.204;6.568;2023-02-15T12:25:03;9.80;69.10
51801;DHT22;37855;53.204;6.568;2023-02-15T12:27:32;9.90;70.40
51801;DHT22;37855;53.204;6.568;2023-02-15T12:30:13;9.90;69.30
51801;DHT22;37855;53.204;6.568;2023-02-15T12:32:53;9.90;69.70
51801;DHT22;37855;53.204;6.568;2023-02-15T12:35:32;9.90;69.90
51801;DHT22;37855;53.204;6.568;2023-02-15T12:38:21;9.90;69.90
51801;DHT22;37855;53.204;6.568;2023-02-15T12:41:04;9.90;69.60
51801;DHT22;37855;53.204;6.568;2023-02-15T12:43:35;9.90;69.90
51801;DHT22;37855;53.204;6.568;2023-02-15T12:46:22;10.00;70.10
51801;DHT22;37855;53.204;6.568;2023-02-15T12:49:20;10.10;69.50
51801;DHT22;37855;53.204;6.568;2023-02-15T12:52:41;10.20;69.60
51801;DHT22;37855;53.204;6.568;2023-02-15T12:54:42;10.20;69.70
51801;DHT22;37855;53.204;6.568;2023-02-15T12:57:25;10.30;70.00
51801;DHT22;37855;53.204;6.568;2023-02-15T13:05:39;10.40;69.40
51801;DHT22;37855;53.204;6.568;2023-02-15T13:10:41;10.40;68.60
51801;DHT22;37855;53.204;6.568;2023-02-15T13:13:32;10.40;68.90
51801;DHT22;37855;53.204;6.568;2023-02-15T13:16:05;10.40;68.30
51801;DHT22;37855;53.204;6.568;2023-02-15T13:18:36;10.40;68.90
51801;DHT22;37855;53.204;6.568;2023-02-15T13:21:32;10.40;69.00
51801;DHT22;37855;53.204;6.568;2023-02-15T13:24:06;10.40;68.70
51801;DHT22;37855;53.204;6.568;2023-02-15T13:26:34;10.50;68.80
51801;DHT22;37855;53.204;6.568;2023-02-15T13:29:10;10.40;68.90
51801;DHT22;37855;53.204;6.568;2023-02-15T13:31:39;10.50;68.80
51801;DHT22;37855;53.204;6.568;2023-02-15T13:34:19;10.60;68.80
51801;DHT22;37855;53.204;6.568;2023-02-15T13:36:59;10.60;68.40
51801;DHT22;37855;53.204;6.568;2023-02-15T13:42:20;10.70;68.20
51801;DHT22;37855;53.204;6.568;2023-02-15T13:53:32;10.70;67.70
51801;DHT22;37855;53.204;6.568;2023-02-15T13:56:16;10.70;66.30
51801;DHT22;37855;53.204;6.568;2023-02-15T14:01:36;10.70;67.60
51801;DHT22;37855;53.204;6.568;2023-02-15T14:15:48;10.60;67.10
51801;DHT22;37855;53.204;6.568;2023-02-15T14:18:46;10.60;66.70
51801;DHT22;37855;53.204;6.568;2023-02-15T14:21:31;10.50;66.80
51801;DHT22;37855;53.204;6.568;2023-02-15T14:32:16;10.50;66.90
51801;DHT22;37855;53.204;6.568;2023-02-15T14:34:52;10.50;67.30
51801;DHT22;37855;53.204;6.568;2023-02-15T14:37:30;10.50;67.30
51801;DHT22;37855;53.204;6.568;2023-02-15T14:48:48;10.40;67.20
51801;DHT22;37855;53.204;6.568;2023-02-15T14:54:07;10.40;67.00
51801;DHT22;37855;53.204;6.568;2023-02-15T14:56:33;10.40;66.90
51801;DHT22;37855;53.204;6.568;2023-02-15T14:59:21;10.40;66.50
51801;DHT22;37855;53.204;6.568;2023-02-15T15:01:58;10.40;66.60
51801;DHT22;37855;53.204;6.568;2023-02-15T15:04:41;10.40;66.60
51801;DHT22;37855;53.204;6.568;2023-02-15T15:07:25;10.40;66.00
51801;DHT22;37855;53.204;6.568;2023-02-15T15:18:08;10.20;66.20
51801;DHT22;37855;53.204;6.568;2023-02-15T15:20:50;10.20;66.40
51801;DHT22;37855;53.204;6.568;2023-02-15T15:47:49;9.70;66.40
51801;DHT22;37855;53.204;6.568;2023-02-15T15:50:19;9.60;66.20
51801;DHT22;37855;53.204;6.568;2023-02-15T15:52:54;9.50;66.70
51801;DHT22;37855;53.204;6.568;2023-02-15T15:55:26;9.50;66.90
51801;DHT22;37855;53.204;6.568;2023-02-15T15:57:56;9.40;67.20
51801;DHT22;37855;53.204;6.568;2023-02-15T16:00:34;9.40;67.20
51801;DHT22;37855;53.204;6.568;2023-02-15T16:03:30;9.40;67.40
51801;DHT22;37855;53.204;6.568;2023-02-15T16:05:56;9.30;67.50
51801;DHT22;37855;53.204;6.568;2023-02-15T16:11:36;9.20;66.80
51801;DHT22;37855;53.204;6.568;2023-02-15T16:14:11;9.10;67.60
51801;DHT22;37855;53.204;6.568;2023-02-15T16:16:38;9.10;67.70
51801;DHT22;37855;53.204;6.568;2023-02-15T16:26:19;9.00;68.20
51801;DHT22;37855;53.204;6.568;2023-02-15T16:28:52;8.90;68.10
51801;DHT22;37855;53.204;6.568;2023-02-15T16:31:18;8.80;68.40
51801;DHT22;37855;53.204;6.568;2023-02-15T16:33:45;8.80;68.50
51801;DHT22;37855;53.204;6.568;2023-02-15T16:36:13;8.80;68.60
51801;DHT22;37855;53.204;6.568;2023-02-15T16:43:52;8.60;69.20
51801;DHT22;37855;53.204;6.568;2023-02-15T16:46:28;8.60;69.00
51801;DHT22;37855;53.204;6.568;2023-02-15T16:48:59;8.50;69.10
51801;DHT22;37855;53.204;6.568;2023-02-15T16:51:29;8.50;69.40
51801;DHT22;37855;53.204;6.568;2023-02-15T16:53:57;8.40;69.50
51801;DHT22;37855;53.204;6.568;2023-02-15T16:56:30;8.40;69.60
51801;DHT22;37855;53.204;6.568;2023-02-15T16:58:57;8.40;69.80
51801;DHT22;37855;53.204;6.568;2023-02-15T17:01:26;8.40;69.80
51801;DHT22;37855;53.204;6.568;2023-02-15T17:04:29;8.30;69.70
51801;DHT22;37855;53.204;6.568;2023-02-15T17:07:06;8.30;69.80
51801;DHT22;37855;53.204;6.568;2023-02-15T17:09:55;8.30;69.90
51801;DHT22;37855;53.204;6.568;2023-02-15T17:12:52;8.20;69.90
51801;DHT22;37855;53.204;6.568;2023-02-15T17:15:41;8.20;69.90
51801;DHT22;37855;53.204;6.568;2023-02-15T17:18:22;8.20;70.00
51801;DHT22;37855;53.204;6.568;2023-02-15T17:20:50;8.10;70.10
51801;DHT22;37855;53.204;6.568;2023-02-15T17:23:46;8.10;70.20
51801;DHT22;37855;53.204;6.568;2023-02-15T17:26:23;8.10;70.20
51801;DHT22;37855;53.204;6.568;2023-02-15T17:28:54;8.10;70.20
51801;DHT22;37855;53.204;6.568;2023-02-15T17:31:27;8.10;70.20
51801;DHT22;37855;53.204;6.568;2023-02-15T17:34:09;8.00;70.10
51801;DHT22;37855;53.204;6.568;2023-02-15T17:36:58;8.00;70.10
51801;DHT22;37855;53.204;6.568;2023-02-15T17:39:25;8.00;70.20
51801;DHT22;37855;53.204;6.568;2023-02-15T17:41:52;8.00;70.30
51801;DHT22;37855;53.204;6.568;2023-02-15T17:44:18;8.00;70.30
51801;DHT22;37855;53.204;6.568;2023-02-15T17:46:48;8.00;70.40
51801;DHT22;37855;53.204;6.568;2023-02-15T17:49:23;8.00;70.40
51801;DHT22;37855;53.204;6.568;2023-02-15T17:51:56;8.00;70.30
51801;DHT22;37855;53.204;6.568;2023-02-15T17:54:24;7.90;70.40
51801;DHT22;37855;53.204;6.568;2023-02-15T17:57:12;7.90;70.40
51801;DHT22;37855;53.204;6.568;2023-02-15T17:59:39;7.90;70.40
51801;DHT22;37855;53.204;6.568;2023-02-15T18:02:25;7.90;70.40
51801;DHT22;37855;53.204;6.568;2023-02-15T18:05:14;8.00;70.40
51801;DHT22;37855;53.204;6.568;2023-02-15T18:07:59;8.00;70.40
51801;DHT22;37855;53.204;6.568;2023-02-15T18:10:44;8.00;70.40
51801;DHT22;37855;53.204;6.568;2023-02-15T18:13:29;7.90;70.40
51801;DHT22;37855;53.204;6.568;2023-02-15T18:15:56;7.90;70.50
51801;DHT22;37855;53.204;6.568;2023-02-15T18:18:22;7.90;70.50
51801;DHT22;37855;53.204;6.568;2023-02-15T18:20:49;7.90;70.60
51801;DHT22;37855;53.204;6.568;2023-02-15T18:23:15;7.90;70.60
51801;DHT22;37855;53.204;6.568;2023-02-15T18:25:43;7.80;70.50
51801;DHT22;37855;53.204;6.568;2023-02-15T18:28:09;7.80;70.70
51801;DHT22;37855;53.204;6.568;2023-02-15T18:30:35;7.80;70.70
51801;DHT22;37855;53.204;6.568;2023-02-15T18:33:01;7.80;70.60
51801;DHT22;37855;53.204;6.568;2023-02-15T18:35:30;7.80;70.60
51801;DHT22;37855;53.204;6.568;2023-02-15T18:37:57;7.70;70.60
51801;DHT22;37855;53.204;6.568;2023-02-15T18:40:25;7.70;70.60
51801;DHT22;37855;53.204;6.568;2023-02-15T18:42:54;7.70;70.70
51801;DHT22;37855;53.204;6.568;2023-02-15T18:45:27;7.60;70.70
51801;DHT22;37855;53.204;6.568;2023-02-15T18:47:57;7.70;70.80
51801;DHT22;37855;53.204;6.568;2023-02-15T18:50:24;7.70;70.80
51801;DHT22;37855;53.204;6.568;2023-02-15T18:52:51;7.60;70.90
51801;DHT22;37855;53.204;6.568;2023-02-15T18:55:25;7.60;70.90
51801;DHT22;37855;53.204;6.568;2023-02-15T18:57:53;7.60;71.00
51801;DHT22;37855;53.204;6.568;2023-02-15T19:00:25;7.60;70.90
51801;DHT22;37855;53.204;6.568;2023-02-15T19:02:53;7.60;70.90
51801;DHT22;37855;53.204;6.568;2023-02-15T19:05:20;7.60;70.90
51801;DHT22;37855;53.204;6.568;2023-02-15T19:07:46;7.50;71.00
51801;DHT22;37855;53.204;6.568;2023-02-15T19:10:18;7.50;71.00
51801;DHT22;37855;53.204;6.568;2023-02-15T19:12:44;7.50;71.00
51801;DHT22;37855;53.204;6.568;2023-02-15T19:15:18;7.50;71.10
51801;DHT22;37855;53.204;6.568;2023-02-15T19:17:44;7.50;71.10
51801;DHT22;37855;53.204;6.568;2023-02-15T19:20:25;7.50;71.20
51801;DHT22;37855;53.204;6.568;2023-02-15T19:22:52;7.50;71.20
51801;DHT22;37855;53.204;6.568;2023-02-15T19:25:25;7.40;71.20
51801;DHT22;37855;53.204;6.568;2023-02-15T19:27:52;7.50;71.30
51801;DHT22;37855;53.204;6.568;2023-02-15T19:30:24;7.40;71.20
51801;DHT22;37855;53.204;6.568;2023-02-15T19:32:52;7.40;71.30
51801;DHT22;37855;53.204;6.568;2023-02-15T19:35:32;7.40;71.40
51801;DHT22;37855;53.204;6.568;2023-02-15T19:38:01;7.40;71.30
51801;DHT22;37855;53.204;6.568;2023-02-15T19:40:32;7.40;71.30
51801;DHT22;37855;53.204;6.568;2023-02-15T19:43:17;7.40;71.40
51801;DHT22;37855;53.204;6.568;2023-02-15T19:45:43;7.30;71.40
51801;DHT22;37855;53.204;6.568;2023-02-15T19:48:11;7.30;71.40
51801;DHT22;37855;53.204;6.568;2023-02-15T19:50:49;7.40;71.30
51801;DHT22;37855;53.204;6.568;2023-02-15T19:53:22;7.30;71.30